createdAt,value
2019-03-28T00:00:03.732Z,81
2019-03-28T00:01:02.865Z,81
2019-03-28T00:02:02.980Z,81
2019-03-28T00:03:03.695Z,81
2019-03-28T00:04:03.891Z,81
2019-03-28T00:05:03.782Z,81
2019-03-28T00:06:03.342Z,81
2019-03-28T00:07:03.554Z,81
2019-03-28T00:08:03.489Z,81
2019-03-28T00:09:02.816Z,82
2019-03-28T00:10:03.683Z,82
2019-03-28T00:11:02.864Z,82
2019-03-28T00:12:03.592Z,82
2019-03-28T00:13:02.605Z,82
2019-03-28T00:14:03.049Z,82
2019-03-28T00:15:02.913Z,82
2019-03-28T00:16:02.813Z,82
2019-03-28T00:17:05.004Z,82
2019-03-28T00:18:04.155Z,82
2019-03-28T00:19:03.195Z,82
2019-03-28T00:20:03.812Z,82
2019-03-28T00:21:02.925Z,82
2019-03-28T00:22:06.055Z,82
2019-03-28T00:23:02.852Z,82
2019-03-28T00:24:03.754Z,82
2019-03-28T00:25:03.152Z,82
2019-03-28T00:26:03.581Z,82
2019-03-28T00:27:03.739Z,82
2019-03-28T00:28:03.679Z,82
2019-03-28T00:29:03.900Z,82
2019-03-28T00:30:03.632Z,82
2019-03-28T00:31:02.646Z,82
2019-03-28T00:32:02.998Z,82
2019-03-28T00:33:03.786Z,82
2019-03-28T00:34:03.525Z,82
2019-03-28T00:35:03.780Z,82
2019-03-28T00:36:03.688Z,82
2019-03-28T00:37:03.559Z,82
2019-03-28T00:38:03.513Z,82
2019-03-28T00:39:03.806Z,82
2019-03-28T00:40:03.056Z,82
2019-03-28T00:41:03.606Z,82
2019-03-28T00:42:03.810Z,82
2019-03-28T00:43:03.843Z,82
2019-03-28T00:44:03.623Z,82
2019-03-28T00:45:02.932Z,82
2019-03-28T00:46:02.884Z,82
2019-03-28T00:47:03.694Z,82
2019-03-28T00:48:03.479Z,82
2019-03-28T00:49:03.732Z,82
2019-03-28T00:50:03.577Z,82
2019-03-28T00:51:03.514Z,82
2019-03-28T00:52:03.545Z,82
2019-03-28T00:53:02.937Z,82
2019-03-28T00:54:03.550Z,82
2019-03-28T00:55:03.606Z,82
2019-03-28T00:56:03.479Z,82
2019-03-28T00:57:02.952Z,82
2019-03-28T00:58:02.716Z,82
2019-03-28T00:59:03.626Z,82
2019-03-28T01:00:02.811Z,82
2019-03-28T01:01:03.568Z,82
2019-03-28T01:02:03.596Z,82
2019-03-28T01:03:03.632Z,82
2019-03-28T01:04:02.881Z,82
2019-03-28T01:05:04.022Z,82
2019-03-28T01:06:02.989Z,82
2019-03-28T01:07:04.031Z,82
2019-03-28T01:08:03.755Z,82
2019-03-28T01:09:05.732Z,82
2019-03-28T01:10:03.751Z,82
2019-03-28T01:11:03.727Z,82
2019-03-28T01:12:03.631Z,82
2019-03-28T01:13:03.782Z,82
2019-03-28T01:14:03.352Z,82
2019-03-28T01:15:03.671Z,82
2019-03-28T01:16:03.306Z,82
2019-03-28T01:17:03.817Z,82
2019-03-28T01:18:03.711Z,82
2019-03-28T01:19:03.574Z,82
2019-03-28T01:20:03.681Z,82
2019-03-28T01:21:03.648Z,82
2019-03-28T01:22:03.398Z,82
2019-03-28T01:23:03.669Z,82
2019-03-28T01:24:03.425Z,82
2019-03-28T01:25:03.401Z,82
2019-03-28T01:26:03.227Z,82
2019-03-28T01:27:03.283Z,82
2019-03-28T01:28:03.467Z,82
2019-03-28T01:29:03.478Z,82
2019-03-28T01:30:03.357Z,82
2019-03-28T01:31:03.377Z,82
2019-03-28T01:32:03.343Z,82
2019-03-28T01:33:03.232Z,83
2019-03-28T01:34:03.648Z,83
2019-03-28T01:35:03.630Z,83
2019-03-28T01:36:03.451Z,83
2019-03-28T01:37:04.161Z,83
2019-03-28T01:38:03.205Z,83
2019-03-28T01:39:03.625Z,83
2019-03-28T01:40:03.660Z,83
2019-03-28T01:41:03.572Z,83
2019-03-28T01:42:03.236Z,83
2019-03-28T01:43:02.991Z,83
2019-03-28T01:44:02.898Z,83
2019-03-28T01:45:03.380Z,83
2019-03-28T01:46:03.205Z,83
2019-03-28T01:47:03.098Z,83
2019-03-28T01:48:03.014Z,83
2019-03-28T01:49:03.951Z,83
2019-03-28T01:50:03.139Z,83
2019-03-28T01:51:03.195Z,83
2019-03-28T01:52:04.650Z,83
2019-03-28T01:53:02.021Z,83
2019-03-28T01:54:03.731Z,83
2019-03-28T01:55:03.238Z,83
2019-03-28T01:56:03.429Z,83
2019-03-28T01:57:13.177Z,83
2019-03-28T01:58:03.377Z,83
2019-03-28T01:59:03.182Z,83
2019-03-28T02:00:03.465Z,83
2019-03-28T02:01:03.866Z,83
2019-03-28T02:02:02.912Z,83
2019-03-28T02:03:03.204Z,83
2019-03-28T02:04:03.134Z,83
2019-03-28T02:05:03.247Z,83
2019-03-28T02:06:02.992Z,83
2019-03-28T02:07:03.270Z,83
2019-03-28T02:08:03.156Z,83
2019-03-28T02:09:03.261Z,83
2019-03-28T02:10:03.222Z,83
2019-03-28T02:11:03.037Z,83
2019-03-28T02:12:02.965Z,83
2019-03-28T02:13:03.063Z,83
2019-03-28T02:14:03.842Z,83
2019-03-28T02:15:02.998Z,83
2019-03-28T02:16:03.076Z,83
2019-03-28T02:17:03.387Z,83
2019-03-28T02:18:03.578Z,83
2019-03-28T02:19:03.866Z,83
2019-03-28T02:20:02.929Z,83
2019-03-28T02:21:03.776Z,83
2019-03-28T02:22:03.671Z,83
2019-03-28T02:23:03.694Z,84
2019-03-28T02:24:03.587Z,84
2019-03-28T02:25:02.732Z,84
2019-03-28T02:26:03.537Z,84
2019-03-28T02:27:03.037Z,84
2019-03-28T02:28:03.717Z,84
2019-03-28T02:29:02.681Z,84
2019-03-28T02:30:03.201Z,84
2019-03-28T02:31:02.818Z,84
2019-03-28T02:32:02.960Z,84
2019-03-28T02:33:02.935Z,84
2019-03-28T02:34:03.088Z,84
2019-03-28T02:35:03.809Z,84
2019-03-28T02:36:02.987Z,84
2019-03-28T02:37:03.746Z,84
2019-03-28T02:38:03.616Z,84
2019-03-28T02:39:03.657Z,84
2019-03-28T02:40:03.764Z,84
2019-03-28T02:41:03.697Z,84
2019-03-28T02:42:03.764Z,84
2019-03-28T02:43:03.659Z,84
2019-03-28T02:44:03.690Z,84
2019-03-28T02:45:04.214Z,84
2019-03-28T02:46:03.610Z,84
2019-03-28T02:47:03.486Z,84
2019-03-28T02:48:03.378Z,84
2019-03-28T02:49:03.383Z,84
2019-03-28T02:50:03.572Z,84
2019-03-28T02:51:04.303Z,84
2019-03-28T02:52:03.278Z,84
2019-03-28T02:53:03.706Z,84
2019-03-28T02:54:03.140Z,84
2019-03-28T02:55:03.889Z,84
2019-03-28T02:56:03.606Z,84
2019-03-28T02:57:03.470Z,84
2019-03-28T02:58:03.280Z,84
2019-03-28T02:59:03.466Z,84
2019-03-28T03:00:03.482Z,84
2019-03-28T03:01:03.311Z,84
2019-03-28T03:02:03.230Z,84
2019-03-28T03:03:03.254Z,84
2019-03-28T03:04:03.421Z,84
2019-03-28T03:05:03.284Z,84
2019-03-28T03:06:03.311Z,84
2019-03-28T03:07:03.352Z,84
2019-03-28T03:08:03.351Z,84
2019-03-28T03:09:02.760Z,84
2019-03-28T03:10:03.373Z,84
2019-03-28T03:11:03.073Z,84
2019-03-28T03:12:03.253Z,84
2019-03-28T03:13:03.190Z,84
2019-03-28T03:14:02.956Z,84
2019-03-28T03:15:04.044Z,84
2019-03-28T03:16:02.871Z,84
2019-03-28T03:17:03.298Z,84
2019-03-28T03:18:03.072Z,84
2019-03-28T03:19:03.341Z,84
2019-03-28T03:20:03.478Z,84
2019-03-28T03:21:02.848Z,84
2019-03-28T03:22:03.356Z,84
2019-03-28T03:23:03.343Z,84
2019-03-28T03:24:02.828Z,84
2019-03-28T03:25:03.088Z,84
2019-03-28T03:26:03.452Z,84
2019-03-28T03:27:03.156Z,84
2019-03-28T03:28:03.385Z,84
2019-03-28T03:29:03.212Z,84
2019-03-28T03:30:04.044Z,84
2019-03-28T03:31:03.314Z,84
2019-03-28T03:32:03.409Z,84
2019-03-28T03:33:03.523Z,84
2019-03-28T03:34:05.889Z,84
2019-03-28T03:35:03.241Z,84
2019-03-28T03:36:03.169Z,84
2019-03-28T03:37:04.291Z,84
2019-03-28T03:38:02.734Z,84
2019-03-28T03:39:03.115Z,84
2019-03-28T03:40:03.029Z,84
2019-03-28T03:41:03.289Z,84
2019-03-28T03:42:03.080Z,84
2019-03-28T03:43:02.969Z,84
2019-03-28T03:44:03.151Z,84
2019-03-28T03:45:03.015Z,84
2019-03-28T03:46:03.091Z,84
2019-03-28T03:47:02.885Z,84
2019-03-28T03:48:03.104Z,84
2019-03-28T03:49:02.798Z,84
2019-03-28T03:50:03.137Z,84
2019-03-28T03:51:02.893Z,84
2019-03-28T03:52:03.136Z,84
2019-03-28T03:53:02.771Z,84
2019-03-28T03:54:03.074Z,84
2019-03-28T03:55:02.986Z,84
2019-03-28T03:56:03.146Z,84
2019-03-28T03:57:03.155Z,84
2019-03-28T03:58:19.175Z,84
2019-03-28T03:59:03.191Z,84
2019-03-28T04:00:04.061Z,84
2019-03-28T04:01:03.357Z,84
2019-03-28T04:02:03.710Z,84
2019-03-28T04:03:03.576Z,84
2019-03-28T04:04:03.526Z,84
2019-03-28T04:05:03.683Z,84
2019-03-28T04:06:03.511Z,84
2019-03-28T04:07:03.386Z,84
2019-03-28T04:08:03.542Z,84
2019-03-28T04:09:03.297Z,84
2019-03-28T04:10:03.595Z,84
2019-03-28T04:11:03.570Z,84
2019-03-28T04:12:03.496Z,84
2019-03-28T04:13:03.347Z,84
2019-03-28T04:14:03.280Z,84
2019-03-28T04:15:03.558Z,84
2019-03-28T04:16:04.297Z,84
2019-03-28T04:17:03.811Z,84
2019-03-28T04:18:03.367Z,84
2019-03-28T04:19:03.317Z,84
2019-03-28T04:20:03.437Z,84
2019-03-28T04:21:03.585Z,84
2019-03-28T04:22:03.155Z,84
2019-03-28T04:23:04.396Z,84
2019-03-28T04:24:03.131Z,84
2019-03-28T04:25:02.983Z,84
2019-03-28T04:26:03.289Z,84
2019-03-28T04:27:03.135Z,84
2019-03-28T04:28:03.026Z,84
2019-03-28T04:29:02.992Z,84
2019-03-28T04:30:03.036Z,84
2019-03-28T04:31:02.815Z,84
2019-03-28T04:32:02.888Z,84
2019-03-28T04:33:02.996Z,84
2019-03-28T04:34:10.043Z,84
2019-03-28T04:35:03.107Z,84
2019-03-28T04:36:02.931Z,84
2019-03-28T04:37:02.918Z,84
2019-03-28T04:38:03.252Z,84
2019-03-28T04:39:02.889Z,84
2019-03-28T04:40:02.815Z,84
2019-03-28T04:41:02.928Z,84
2019-03-28T04:42:03.483Z,84
2019-03-28T04:43:02.885Z,85
2019-03-28T04:44:03.614Z,85
2019-03-28T04:45:05.784Z,85
2019-03-28T04:46:03.448Z,85
2019-03-28T04:47:03.697Z,85
2019-03-28T04:48:03.531Z,85
2019-03-28T04:49:03.749Z,85
2019-03-28T04:50:03.576Z,85
2019-03-28T04:51:03.546Z,85
2019-03-28T04:52:03.479Z,84
2019-03-28T04:53:03.637Z,85
2019-03-28T04:54:03.868Z,84
2019-03-28T04:55:03.412Z,85
2019-03-28T04:56:03.299Z,85
2019-03-28T04:57:04.534Z,85
2019-03-28T04:58:03.713Z,85
2019-03-28T04:59:03.585Z,85
2019-03-28T05:00:03.762Z,85
2019-03-28T05:01:03.450Z,85
2019-03-28T05:02:05.520Z,85
2019-03-28T05:03:03.327Z,85
2019-03-28T05:04:03.511Z,85
2019-03-28T05:05:03.443Z,85
2019-03-28T05:06:03.662Z,85
2019-03-28T05:07:03.354Z,85
2019-03-28T05:08:03.317Z,85
2019-03-28T05:09:03.385Z,85
2019-03-28T05:10:03.405Z,85
2019-03-28T05:11:03.470Z,85
2019-03-28T05:12:03.873Z,85
2019-03-28T05:13:03.273Z,85
2019-03-28T05:14:03.350Z,85
2019-03-28T05:15:03.253Z,85
2019-03-28T05:16:03.185Z,85
2019-03-28T05:17:03.138Z,85
2019-03-28T05:18:03.349Z,85
2019-03-28T05:19:03.317Z,85
2019-03-28T05:20:03.253Z,85
2019-03-28T05:21:03.600Z,85
2019-03-28T05:22:03.424Z,85
2019-03-28T05:23:04.265Z,85
2019-03-28T05:24:02.955Z,85
2019-03-28T05:25:03.556Z,85
2019-03-28T05:26:03.480Z,85
2019-03-28T05:27:03.433Z,85
2019-03-28T05:28:03.004Z,85
2019-03-28T05:29:03.498Z,85
2019-03-28T05:30:06.855Z,85
2019-03-28T05:31:03.365Z,85
2019-03-28T05:32:03.227Z,85
2019-03-28T05:33:03.304Z,85
2019-03-28T05:34:02.873Z,85
2019-03-28T05:35:03.329Z,85
2019-03-28T05:36:04.777Z,85
2019-03-28T05:37:03.075Z,85
2019-03-28T05:38:03.225Z,85
2019-03-28T05:39:03.015Z,85
2019-03-28T05:40:03.020Z,85
2019-03-28T05:41:02.757Z,85
2019-03-28T05:42:03.516Z,85
2019-03-28T05:43:03.131Z,85
2019-03-28T05:44:03.221Z,85
2019-03-28T05:45:03.466Z,85
2019-03-28T05:46:02.890Z,85
2019-03-28T05:47:03.750Z,85
2019-03-28T05:48:02.820Z,85
2019-03-28T05:49:03.075Z,85
2019-03-28T05:50:03.163Z,85
2019-03-28T05:51:03.316Z,85
2019-03-28T05:52:03.043Z,85
2019-03-28T05:53:03.057Z,85
2019-03-28T05:54:02.954Z,85
2019-03-28T05:55:05.753Z,85
2019-03-28T05:56:02.831Z,85
2019-03-28T05:57:02.991Z,85
2019-03-28T05:58:02.789Z,85
2019-03-28T05:59:11.718Z,85
2019-03-28T06:00:02.985Z,85
2019-03-28T06:01:03.892Z,85
2019-03-28T06:02:02.800Z,85
2019-03-28T06:03:02.839Z,85
2019-03-28T06:04:02.853Z,85
2019-03-28T06:05:03.864Z,85
2019-03-28T06:06:03.833Z,85
2019-03-28T06:07:02.999Z,85
2019-03-28T06:08:02.862Z,85
2019-03-28T06:09:03.496Z,85
2019-03-28T06:10:03.033Z,85
2019-03-28T06:11:02.794Z,85
2019-03-28T06:12:03.084Z,85
2019-03-28T06:13:02.872Z,85
2019-03-28T06:14:03.758Z,85
2019-03-28T06:15:03.740Z,85
2019-03-28T06:16:02.611Z,85
2019-03-28T06:17:03.351Z,85
2019-03-28T06:18:02.808Z,85
2019-03-28T06:19:03.735Z,85
2019-03-28T06:20:02.928Z,85
2019-03-28T06:21:02.859Z,85
2019-03-28T06:22:03.454Z,85
2019-03-28T06:23:03.512Z,85
2019-03-28T06:24:03.022Z,85
2019-03-28T06:25:06.518Z,85
2019-03-28T06:26:02.949Z,85
2019-03-28T06:27:03.526Z,85
2019-03-28T06:28:03.102Z,84
2019-03-28T06:29:03.385Z,84
2019-03-28T06:30:03.376Z,84
2019-03-28T06:31:03.661Z,84
2019-03-28T06:32:03.569Z,84
2019-03-28T06:33:03.402Z,84
2019-03-28T06:34:03.573Z,84
2019-03-28T06:35:03.209Z,84
2019-03-28T06:36:03.370Z,84
2019-03-28T06:37:03.425Z,84
2019-03-28T06:38:03.180Z,84
2019-03-28T06:39:03.446Z,84
2019-03-28T06:40:03.384Z,84
2019-03-28T06:41:03.578Z,84
2019-03-28T06:42:03.467Z,84
2019-03-28T06:43:03.241Z,84
2019-03-28T06:44:03.433Z,84
2019-03-28T06:45:04.283Z,84
2019-03-28T06:46:03.261Z,84
2019-03-28T06:47:03.213Z,84
2019-03-28T06:48:03.070Z,84
2019-03-28T06:49:03.152Z,84
2019-03-28T06:50:03.126Z,84
2019-03-28T06:51:03.441Z,84
2019-03-28T06:52:03.331Z,84
2019-03-28T06:53:03.044Z,84
2019-03-28T06:54:04.407Z,84
2019-03-28T06:55:03.208Z,83
2019-03-28T06:56:02.001Z,83
2019-03-28T06:57:03.270Z,83
2019-03-28T06:58:03.104Z,83
2019-03-28T06:59:03.050Z,83
2019-03-28T07:00:02.963Z,83
2019-03-28T07:01:02.980Z,83
2019-03-28T07:02:03.048Z,83
2019-03-28T07:03:03.115Z,83
2019-03-28T07:04:04.760Z,83
2019-03-28T07:05:02.877Z,83
2019-03-28T07:06:03.033Z,83
2019-03-28T07:07:02.934Z,83
2019-03-28T07:08:02.803Z,83
2019-03-28T07:09:02.648Z,83
2019-03-28T07:10:04.001Z,82
2019-03-28T07:11:03.031Z,82
2019-03-28T07:12:02.829Z,81
2019-03-28T07:13:03.225Z,81
2019-03-28T07:14:03.302Z,81
2019-03-28T07:15:03.617Z,81
2019-03-28T07:16:02.988Z,81
2019-03-28T07:17:03.949Z,81
2019-03-28T07:18:03.214Z,81
2019-03-28T07:19:03.865Z,80
2019-03-28T07:20:03.079Z,80
2019-03-28T07:21:02.887Z,80
2019-03-28T07:22:03.223Z,80
2019-03-28T07:23:02.934Z,80
2019-03-28T07:24:03.043Z,80
2019-03-28T07:25:03.291Z,80
2019-03-28T07:26:03.826Z,80
2019-03-28T07:27:02.861Z,79
2019-03-28T07:28:06.868Z,79
2019-03-28T07:29:03.022Z,79
2019-03-28T07:30:03.722Z,79
2019-03-28T07:31:02.746Z,78
2019-03-28T07:32:03.110Z,78
2019-03-28T07:33:03.188Z,78
2019-03-28T07:34:03.713Z,78
2019-03-28T07:35:02.846Z,77
2019-03-28T07:36:02.729Z,77
2019-03-28T07:37:02.929Z,77
2019-03-28T07:38:03.801Z,77
2019-03-28T07:39:03.724Z,77
2019-03-28T07:40:03.120Z,77
2019-03-28T07:41:03.886Z,77
2019-03-28T07:42:03.088Z,77
2019-03-28T07:43:03.738Z,77
2019-03-28T07:44:03.035Z,77
2019-03-28T07:45:03.811Z,77
2019-03-28T07:46:03.656Z,77
2019-03-28T07:47:02.755Z,77
2019-03-28T07:48:03.566Z,76
2019-03-28T07:49:03.380Z,76
2019-03-28T07:50:02.926Z,76
2019-03-28T07:51:02.807Z,76
2019-03-28T07:52:03.832Z,76
2019-03-28T07:53:03.684Z,76
2019-03-28T07:54:03.078Z,76
2019-03-28T07:55:03.474Z,76
2019-03-28T07:56:03.593Z,76
2019-03-28T07:57:03.698Z,76
2019-03-28T07:58:03.375Z,76
2019-03-28T07:59:03.584Z,75
2019-03-28T08:00:05.616Z,75
2019-03-28T08:01:02.948Z,75
2019-03-28T08:02:03.926Z,75
2019-03-28T08:03:03.828Z,74
2019-03-28T08:04:03.779Z,74
2019-03-28T08:05:03.767Z,74
2019-03-28T08:06:03.569Z,74
2019-03-28T08:07:03.010Z,74
2019-03-28T08:08:03.751Z,73
2019-03-28T08:09:03.700Z,73
2019-03-28T08:10:03.793Z,72
2019-03-28T08:11:02.793Z,72
2019-03-28T08:12:03.030Z,72
2019-03-28T08:13:03.455Z,72
2019-03-28T08:14:03.826Z,72
2019-03-28T08:15:03.464Z,72
2019-03-28T08:16:03.609Z,72
2019-03-28T08:17:03.420Z,71
2019-03-28T08:18:03.821Z,71
2019-03-28T08:19:03.232Z,71
2019-03-28T08:20:03.648Z,71
2019-03-28T08:21:03.342Z,70
2019-03-28T08:22:03.591Z,70
2019-03-28T08:23:03.399Z,70
2019-03-28T08:24:03.532Z,70
2019-03-28T08:25:03.401Z,69
2019-03-28T08:26:03.346Z,69
2019-03-28T08:27:03.356Z,68
2019-03-28T08:28:02.923Z,68
2019-03-28T08:29:03.515Z,68
2019-03-28T08:30:19.786Z,68
2019-03-28T08:31:03.215Z,68
2019-03-28T08:32:03.438Z,68
2019-03-28T08:33:04.659Z,68
2019-03-28T08:34:02.708Z,67
2019-03-28T08:35:03.885Z,67
2019-03-28T08:36:03.392Z,67
2019-03-28T08:37:03.669Z,66
2019-03-28T08:38:03.553Z,66
2019-03-28T08:39:03.566Z,65
2019-03-28T08:40:03.410Z,65
2019-03-28T08:41:07.495Z,64
2019-03-28T08:42:03.848Z,64
2019-03-28T08:43:03.601Z,64
2019-03-28T08:44:03.424Z,64
2019-03-28T08:45:03.532Z,64
2019-03-28T08:46:03.717Z,63
2019-03-28T08:47:06.585Z,62
2019-03-28T08:48:03.623Z,63
2019-03-28T08:49:02.910Z,62
2019-03-28T08:50:04.180Z,63
2019-03-28T08:51:02.970Z,63
2019-03-28T08:52:03.874Z,63
2019-03-28T08:53:03.625Z,63
2019-03-28T08:54:03.704Z,63
2019-03-28T08:55:03.889Z,63
2019-03-28T08:56:03.719Z,62
2019-03-28T08:57:03.395Z,62
2019-03-28T08:58:03.436Z,61
2019-03-28T08:59:03.434Z,61
2019-03-28T09:00:03.450Z,61
2019-03-28T09:01:03.482Z,61
2019-03-28T09:02:35.690Z,61
2019-03-28T09:03:03.322Z,61
2019-03-28T09:04:03.174Z,61
2019-03-28T09:05:03.222Z,60
2019-03-28T09:06:03.243Z,61
2019-03-28T09:07:03.206Z,60
2019-03-28T09:08:03.055Z,60
2019-03-28T09:09:03.255Z,60
2019-03-28T09:10:03.129Z,60
2019-03-28T09:11:03.885Z,60
2019-03-28T09:12:03.164Z,59
2019-03-28T09:13:35.310Z,59
2019-03-28T09:14:03.124Z,60
2019-03-28T09:16:03.087Z,60
2019-03-28T09:16:08.388Z,60
2019-03-28T09:17:03.535Z,60
2019-03-28T09:18:03.384Z,60
2019-03-28T09:19:03.260Z,60
2019-03-28T09:20:03.482Z,60
2019-03-28T09:21:03.313Z,60
2019-03-28T09:22:03.343Z,60
2019-03-28T09:23:02.876Z,60
2019-03-28T09:24:03.172Z,60
2019-03-28T09:25:04.583Z,60
2019-03-28T09:26:05.037Z,59
2019-03-28T09:27:03.341Z,59
2019-03-28T09:28:03.212Z,59
2019-03-28T09:29:03.609Z,59
2019-03-28T09:30:03.532Z,59
2019-03-28T09:31:03.439Z,59
2019-03-28T09:32:03.693Z,59
2019-03-28T09:33:03.514Z,59
2019-03-28T09:34:03.615Z,59
2019-03-28T09:35:03.230Z,59
2019-03-28T09:36:03.378Z,59
2019-03-28T09:37:03.594Z,59
2019-03-28T09:38:03.331Z,59
2019-03-28T09:39:03.291Z,59
2019-03-28T09:40:03.219Z,59
2019-03-28T09:41:03.406Z,59
2019-03-28T09:42:03.262Z,59
2019-03-28T09:43:03.406Z,59
2019-03-28T09:44:03.314Z,59
2019-03-28T09:45:03.320Z,58
2019-03-28T09:46:03.345Z,58
2019-03-28T09:47:03.484Z,58
2019-03-28T09:48:03.472Z,58
2019-03-28T09:49:03.264Z,57
2019-03-28T09:50:03.380Z,57
2019-03-28T09:51:03.050Z,57
2019-03-28T09:52:03.143Z,57
2019-03-28T09:53:03.169Z,58
2019-03-28T09:54:02.855Z,58
2019-03-28T09:55:02.975Z,58
2019-03-28T09:56:03.378Z,58
2019-03-28T09:57:03.224Z,57
2019-03-28T09:58:03.205Z,57
2019-03-28T09:59:03.176Z,57
2019-03-28T10:00:03.563Z,57
2019-03-28T10:01:03.679Z,58
2019-03-28T10:02:03.420Z,57
2019-03-28T10:03:02.992Z,57
2019-03-28T10:04:06.810Z,56
2019-03-28T10:05:03.522Z,56
2019-03-28T10:06:03.089Z,57
2019-03-28T10:07:03.628Z,57
2019-03-28T10:08:03.310Z,57
2019-03-28T10:09:03.482Z,57
2019-03-28T10:10:05.508Z,57
2019-03-28T10:11:03.621Z,56
2019-03-28T10:12:03.512Z,57
2019-03-28T10:13:03.499Z,57
2019-03-28T10:14:03.208Z,57
2019-03-28T10:15:03.730Z,57
2019-03-28T10:16:03.032Z,57
2019-03-28T10:17:03.139Z,57
2019-03-28T10:18:03.257Z,57
2019-03-28T10:19:03.031Z,56
2019-03-28T10:20:05.899Z,56
2019-03-28T10:21:03.107Z,56
2019-03-28T10:22:03.061Z,56
2019-03-28T10:23:03.166Z,56
2019-03-28T10:24:03.238Z,56
2019-03-28T10:25:03.182Z,56
2019-03-28T10:26:03.014Z,56
2019-03-28T10:27:02.885Z,56
2019-03-28T10:28:03.170Z,56
2019-03-28T10:29:03.009Z,56
2019-03-28T10:30:02.965Z,55
2019-03-28T10:31:17.223Z,55
2019-03-28T10:32:03.963Z,55
2019-03-28T10:33:03.794Z,55
2019-03-28T10:34:03.307Z,56
2019-03-28T10:35:07.491Z,55
2019-03-28T10:36:03.793Z,55
2019-03-28T10:37:03.798Z,55
2019-03-28T10:38:03.368Z,55
2019-03-28T10:39:03.727Z,55
2019-03-28T10:40:03.745Z,55
2019-03-28T10:41:03.399Z,55
2019-03-28T10:42:03.486Z,54
2019-03-28T10:43:03.575Z,54
2019-03-28T10:44:03.627Z,55
2019-03-28T10:45:03.452Z,55
2019-03-28T10:46:03.707Z,55
2019-03-28T10:47:05.318Z,54
2019-03-28T10:48:03.677Z,54
2019-03-28T10:49:03.349Z,54
2019-03-28T10:50:04.647Z,54
2019-03-28T10:51:03.349Z,54
2019-03-28T10:52:04.381Z,53
2019-03-28T10:53:03.369Z,53
2019-03-28T10:54:03.201Z,53
2019-03-28T10:55:03.230Z,53
2019-03-28T10:56:03.005Z,53
2019-03-28T10:57:31.375Z,53
2019-03-28T10:58:19.855Z,53
2019-03-28T10:59:03.289Z,53
2019-03-28T11:00:03.025Z,53
2019-03-28T11:01:03.128Z,53
2019-03-28T11:02:03.093Z,53
2019-03-28T11:03:04.826Z,53
2019-03-28T11:04:03.156Z,53
2019-03-28T11:05:03.251Z,53
2019-03-28T11:06:03.236Z,53
2019-03-28T11:07:03.244Z,53
2019-03-28T11:08:03.070Z,53
2019-03-28T11:09:03.274Z,53
2019-03-28T11:10:03.324Z,53
2019-03-28T11:11:02.908Z,53
2019-03-28T11:12:03.483Z,53
2019-03-28T11:13:03.309Z,53
2019-03-28T11:14:03.058Z,52
2019-03-28T11:15:02.957Z,52
2019-03-28T11:16:03.391Z,52
2019-03-28T11:17:03.229Z,52
2019-03-28T11:18:03.272Z,52
2019-03-28T11:19:02.937Z,52
2019-03-28T11:20:03.302Z,52
2019-03-28T11:21:03.445Z,52
2019-03-28T11:22:02.952Z,52
2019-03-28T11:23:03.322Z,52
2019-03-28T11:24:03.013Z,52
2019-03-28T11:25:03.087Z,52
2019-03-28T11:26:02.904Z,51
2019-03-28T11:27:03.198Z,51
2019-03-28T11:28:03.881Z,51
2019-03-28T11:29:03.802Z,50
2019-03-28T11:30:02.989Z,50
2019-03-28T11:31:03.082Z,51
2019-03-28T11:32:02.810Z,51
2019-03-28T11:33:06.929Z,51
2019-03-28T11:34:02.972Z,51
2019-03-28T11:35:03.946Z,51
2019-03-28T11:36:02.968Z,51
2019-03-28T11:37:03.121Z,51
2019-03-28T11:38:03.440Z,51
2019-03-28T11:39:03.711Z,51
2019-03-28T11:40:03.781Z,52
2019-03-28T11:41:03.654Z,52
2019-03-28T11:42:03.619Z,51
2019-03-28T11:43:03.670Z,51
2019-03-28T11:44:03.383Z,51
2019-03-28T11:45:03.635Z,51
2019-03-28T11:46:03.381Z,50
2019-03-28T11:47:03.519Z,50
2019-03-28T11:48:03.760Z,50
2019-03-28T11:49:03.548Z,50
2019-03-28T11:50:03.827Z,50
2019-03-28T11:51:03.451Z,50
2019-03-28T11:52:03.277Z,50
2019-03-28T11:53:03.358Z,50
2019-03-28T11:54:03.288Z,50
2019-03-28T11:55:03.442Z,50
2019-03-28T11:56:03.292Z,50
2019-03-28T11:57:03.193Z,51
2019-03-28T11:58:03.196Z,50
2019-03-28T11:59:06.590Z,50
2019-03-28T12:00:03.596Z,50
2019-03-28T12:01:03.460Z,50
2019-03-28T12:02:20.926Z,50
2019-03-28T12:03:03.515Z,50
2019-03-28T12:04:03.415Z,50
2019-03-28T12:05:03.632Z,50
2019-03-28T12:06:03.445Z,50
2019-03-28T12:07:03.271Z,50
2019-03-28T12:08:03.159Z,50
2019-03-28T12:09:03.535Z,50
2019-03-28T12:10:03.243Z,50
2019-03-28T12:11:03.550Z,49
2019-03-28T12:12:03.556Z,50
2019-03-28T12:13:03.060Z,50
2019-03-28T12:14:03.424Z,50
2019-03-28T12:15:03.447Z,50
2019-03-28T12:16:03.449Z,50
2019-03-28T12:17:03.229Z,49
2019-03-28T12:18:03.299Z,49
2019-03-28T12:19:03.061Z,49
2019-03-28T12:20:03.104Z,49
2019-03-28T12:21:02.903Z,49
2019-03-28T12:22:03.033Z,49
2019-03-28T12:23:03.221Z,50
2019-03-28T12:24:03.013Z,50
2019-03-28T12:25:03.170Z,49
2019-03-28T12:26:03.201Z,49
2019-03-28T12:27:03.871Z,49
2019-03-28T12:28:02.760Z,49
2019-03-28T12:29:06.211Z,49
2019-03-28T12:30:03.544Z,50
2019-03-28T12:31:03.860Z,49
2019-03-28T12:32:14.833Z,49
2019-03-28T12:33:02.901Z,49
2019-03-28T12:34:03.499Z,49
2019-03-28T12:35:03.791Z,49
2019-03-28T12:36:03.773Z,49
2019-03-28T12:37:03.618Z,49
2019-03-28T12:38:03.379Z,50
2019-03-28T12:39:03.839Z,50
2019-03-28T12:40:03.726Z,50
2019-03-28T12:41:03.518Z,50
2019-03-28T12:42:03.430Z,50
2019-03-28T12:43:03.398Z,50
2019-03-28T12:44:03.225Z,50
2019-03-28T12:45:03.334Z,50
2019-03-28T12:46:03.106Z,50
2019-03-28T12:47:03.477Z,51
2019-03-28T12:48:03.091Z,51
2019-03-28T12:49:03.149Z,51
2019-03-28T12:50:03.592Z,51
2019-03-28T12:51:03.159Z,51
2019-03-28T12:52:03.365Z,51
2019-03-28T12:53:03.160Z,51
2019-03-28T12:54:03.322Z,51
2019-03-28T12:55:02.975Z,51
2019-03-28T12:56:03.291Z,51
2019-03-28T12:57:03.202Z,51
2019-03-28T12:58:03.738Z,51
2019-03-28T12:59:03.376Z,51
2019-03-28T13:00:03.181Z,51
2019-03-28T13:01:03.821Z,51
2019-03-28T13:02:03.127Z,51
2019-03-28T13:03:03.331Z,51
2019-03-28T13:04:03.047Z,51
2019-03-28T13:05:03.278Z,51
2019-03-28T13:06:02.964Z,51
2019-03-28T13:07:03.264Z,51
2019-03-28T13:08:02.960Z,51
2019-03-28T13:09:02.993Z,51
2019-03-28T13:10:03.185Z,51
2019-03-28T13:11:03.024Z,51
2019-03-28T13:12:03.918Z,51
2019-03-28T13:13:04.240Z,51
2019-03-28T13:14:03.164Z,51
2019-03-28T13:15:03.101Z,51
2019-03-28T13:16:03.291Z,51
2019-03-28T13:17:03.010Z,51
2019-03-28T13:18:03.070Z,51
2019-03-28T13:19:03.072Z,51
2019-03-28T13:20:03.202Z,51
2019-03-28T13:21:14.484Z,51
2019-03-28T13:22:03.092Z,52
2019-03-28T13:23:03.016Z,52
2019-03-28T13:24:03.818Z,52
2019-03-28T13:25:03.267Z,52
2019-03-28T13:26:03.511Z,52
2019-03-28T13:27:03.238Z,53
2019-03-28T13:28:03.182Z,53
2019-03-28T13:29:03.370Z,53
2019-03-28T13:30:03.183Z,53
2019-03-28T13:31:03.237Z,53
2019-03-28T13:32:03.105Z,53
2019-03-28T13:33:03.281Z,53
2019-03-28T13:34:03.133Z,53
2019-03-28T13:35:03.389Z,53
2019-03-28T13:36:03.062Z,53
2019-03-28T13:37:03.049Z,53
2019-03-28T13:38:03.277Z,54
2019-03-28T13:39:03.600Z,54
2019-03-28T13:40:03.358Z,54
2019-03-28T13:41:03.181Z,54
2019-03-28T13:42:02.984Z,54
2019-03-28T13:43:01.893Z,54
2019-03-28T13:44:03.413Z,54
2019-03-28T13:45:03.389Z,54
2019-03-28T13:46:03.133Z,54
2019-03-28T13:47:03.270Z,54
2019-03-28T13:48:03.161Z,54
2019-03-28T13:49:02.876Z,54
2019-03-28T13:50:03.271Z,54
2019-03-28T13:51:02.981Z,54
2019-03-28T13:52:03.236Z,54
2019-03-28T13:53:02.965Z,54
2019-03-28T13:54:02.741Z,54
2019-03-28T13:55:03.069Z,54
2019-03-28T13:56:02.995Z,54
2019-03-28T13:57:03.807Z,54
2019-03-28T13:58:03.951Z,55
2019-03-28T13:59:03.055Z,55
2019-03-28T14:00:03.593Z,55
2019-03-28T14:01:03.845Z,55
2019-03-28T14:02:07.339Z,55
2019-03-28T14:03:03.692Z,55
2019-03-28T14:04:03.779Z,55
2019-03-28T14:05:03.704Z,55
2019-03-28T14:06:03.822Z,55
2019-03-28T14:07:02.366Z,55
2019-03-28T14:08:03.522Z,55
2019-03-28T14:09:03.641Z,55
2019-03-28T14:10:03.631Z,55
2019-03-28T14:11:03.290Z,55
2019-03-28T14:12:03.769Z,55
2019-03-28T14:13:03.951Z,55
2019-03-28T14:14:03.524Z,55
2019-03-28T14:15:03.761Z,55